Time;durP1;ratioP1;P1;durP2;ratioP2;P2;SDS_P1;SDS_P2;PMS_P1;PMS_P2;Temp;Humidity;BMP_temperature;BMP_pressure;BME280_temperature;BME280_humidity;BME280_pressure;Samples;Min_cycle;Max_cycle;Signal;HPM_P1;HPM_P2
2022/09/21 00:01:06;;;;;;;2.33;1.50;;;;;;;11.46;57.43;94779.44;4193280;28;20056;-55
2022/09/21 00:03:08;;;;;;;3.53;1.75;;;;;;;11.43;57.54;94780.59;4202615;28;20135;-59
2022/09/21 00:05:10;;;;;;;3.47;1.80;;;;;;;11.05;58.55;94780.19;4205942;28;20106;-57
2022/09/21 00:07:11;;;;;;;4.85;1.63;;;;;;;10.75;59.58;94786.78;4208525;28;20044;-58
2022/09/21 00:09:13;;;;;;;3.10;1.95;;;;;;;10.45;60.63;94782.91;4212732;28;20044;-58
2022/09/21 00:11:19;;;;;;;2.30;1.70;;;;;;;10.44;60.99;94778.66;4199298;28;20040;-57
2022/09/21 00:13:21;;;;;;;2.50;1.95;;;;;;;10.25;61.46;94780.47;4206472;28;20515;-59
2022/09/21 00:15:23;;;;;;;2.80;2.00;;;;;;;10.23;61.70;94785.03;4204039;28;20698;-57
2022/09/21 00:17:25;;;;;;;3.00;2.10;;;;;;;10.14;61.93;94772.88;4199129;28;20543;-63
2022/09/21 00:19:26;;;;;;;6.85;2.20;;;;;;;10.13;62.71;94788.72;4196223;28;20051;-65
2022/09/21 00:21:29;;;;;;;2.28;1.83;;;;;;;10.28;62.20;94783.75;4196323;28;20056;-66
2022/09/21 00:23:30;;;;;;;5.40;2.50;;;;;;;10.33;62.05;94771.06;4207716;28;20088;-65
2022/09/21 00:25:32;;;;;;;4.38;2.45;;;;;;;10.22;62.06;94780.78;4197601;28;20135;-65
2022/09/21 00:27:34;;;;;;;3.50;2.17;;;;;;;10.32;62.27;94772.03;4199546;28;20486;-64
2022/09/21 00:29:36;;;;;;;3.13;2.30;;;;;;;10.47;61.81;94773.09;4204680;28;20143;-65
2022/09/21 00:31:37;;;;;;;4.18;2.33;;;;;;;10.66;61.20;94770.22;4194888;28;20060;-65
2022/09/21 00:33:40;;;;;;;5.05;2.38;;;;;;;10.67;60.69;94768.44;4209058;28;20156;-64
2022/09/21 00:35:41;;;;;;;3.35;2.50;;;;;;;10.47;61.37;94770.47;4212266;28;20048;-66
2022/09/21 00:37:43;;;;;;;4.30;2.45;;;;;;;10.30;62.07;94772.19;4212390;28;20047;-64
2022/09/21 00:39:45;;;;;;;5.93;2.50;;;;;;;10.20;62.71;94772.28;4210693;28;20075;-64
2022/09/21 00:41:48;;;;;;;3.53;2.33;;;;;;;10.10;62.72;94776.78;4205902;28;20040;-65
2022/09/21 00:44:17;;;;;;;3.75;2.65;;;;;;;9.95;63.63;94776.53;4209831;28;20079;-66
2022/09/21 00:46:29;;;;;;;3.05;2.30;;;;;;;9.95;63.80;94773.91;4209762;28;20063;-66
2022/09/21 00:48:32;;;;;;;3.28;2.72;;;;;;;9.82;63.82;94774.31;4204300;28;20522;-66
2022/09/21 00:50:34;;;;;;;5.53;2.60;;;;;;;9.88;63.77;94774.69;4212047;28;20047;-65
2022/09/21 00:52:47;;;;;;;3.80;2.65;;;;;;;9.76;63.34;94774.91;4210790;28;20047;-63
2022/09/21 00:54:49;;;;;;;4.05;3.03;;;;;;;9.77;63.60;94766.09;4199891;28;20095;-65
2022/09/21 00:56:51;;;;;;;3.00;2.70;;;;;;;9.91;63.44;94775.19;4213543;28;20039;-64
2022/09/21 00:58:53;;;;;;;5.25;3.25;;;;;;;10.01;63.22;94772.47;4217428;28;20478;-64
2022/09/21 01:00:58;;;;;;;4.30;3.70;;;;;;;10.08;63.39;94767.44;4203381;28;20052;-64
2022/09/21 01:03:00;;;;;;;4.70;3.45;;;;;;;10.12;63.12;94761.75;4211295;28;20615;-64
2022/09/21 01:05:03;;;;;;;5.35;4.28;;;;;;;10.14;63.32;94766.84;4211797;28;20459;-65
2022/09/21 01:07:11;;;;;;;4.25;3.70;;;;;;;10.10;62.51;94768.13;4212055;28;20080;-65
2022/09/21 01:09:13;;;;;;;6.20;4.18;;;;;;;9.95;63.04;94776.53;4206671;28;20156;-63
2022/09/21 01:11:26;;;;;;;5.88;3.80;;;;;;;9.79;63.65;94777.22;4197193;28;20105;-62
2022/09/21 01:13:49;;;;;;;7.70;3.97;;;;;;;9.39;64.63;94775.91;4193991;28;20560;-64
2022/09/21 01:16:14;;;;;;;6.85;4.25;;;;;;;9.16;65.49;94780.78;4207666;28;20067;-64
2022/09/21 01:18:31;;;;;;;5.25;4.18;;;;;;;9.27;65.13;94774.53;4201791;28;20048;-65
2022/09/21 01:20:59;;;;;;;5.30;4.00;;;;;;;9.20;64.96;94768.22;4207488;28;20052;-65
2022/09/21 01:23:37;;;;;;;4.80;3.83;;;;;;;8.45;67.23;94772.78;4202194;28;20048;-64
2022/09/21 01:25:47;;;;;;;3.65;3.28;;;;;;;8.45;66.81;94776.22;4201368;28;20056;-63
2022/09/21 01:28:29;;;;;;;4.45;3.55;;;;;;;8.50;67.46;94765.34;4202043;28;20480;-66
2022/09/21 01:30:32;;;;;;;5.93;3.80;;;;;;;8.65;67.46;94760.44;4200338;28;20538;-63
2022/09/21 01:32:39;;;;;;;;;;;;;;;8.85;66.65;94756.78;4184851;28;20086;-65
2022/09/21 01:34:51;;;;;;;4.90;3.40;;;;;;;9.12;65.14;94755.06;4203529;28;19959;-64
2022/09/21 01:36:56;;;;;;;6.30;3.97;;;;;;;9.31;64.89;94760.16;4209883;28;20090;-64
2022/09/21 01:39:04;;;;;;;5.35;3.53;;;;;;;9.44;63.91;94749.31;4211849;28;20055;-58
2022/09/21 01:41:07;;;;;;;6.78;3.75;;;;;;;9.55;63.89;94756.09;4205933;28;20765;-58
2022/09/21 01:43:13;;;;;;;5.20;3.33;;;;;;;9.60;63.16;94749.47;4209922;28;20071;-58
2022/09/21 01:45:18;;;;;;;3.95;3.03;;;;;;;9.68;62.66;94743.47;4199356;28;20044;-58
2022/09/21 01:47:20;;;;;;;4.55;3.20;;;;;;;9.78;63.07;94745.97;4207007;28;20047;-57
2022/09/21 01:49:35;;;;;;;3.63;2.97;;;;;;;9.86;62.59;94740.00;4193743;28;20130;-58
2022/09/21 01:51:42;;;;;;;6.10;2.72;;;;;;;9.93;62.11;94743.63;4210221;28;20052;-58
2022/09/21 01:53:49;;;;;;;5.35;2.85;;;;;;;9.97;62.16;94750.19;4210372;28;20123;-58
2022/09/21 01:55:54;;;;;;;4.20;2.58;;;;;;;9.98;61.21;94747.44;4209756;28;20139;-59
2022/09/21 01:58:01;;;;;;;5.88;2.92;;;;;;;10.01;61.20;94748.94;4209837;28;20472;-56
2022/09/21 02:00:04;;;;;;;3.88;2.80;;;;;;;10.02;60.82;94737.47;4222017;28;20090;-56
2022/09/21 02:02:12;;;;;;;3.83;2.85;;;;;;;10.04;60.75;94748.59;4206098;28;20095;-60
2022/09/21 02:04:14;;;;;;;6.05;3.30;;;;;;;9.86;61.75;94748.66;4209330;28;20074;-56
2022/09/21 02:06:17;;;;;;;4.15;2.95;;;;;;;9.69;61.99;94747.72;4209649;28;20127;-58
2022/09/21 02:08:19;;;;;;;5.25;3.00;;;;;;;9.54;62.82;94744.00;4209430;28;20085;-59
2022/09/21 02:10:31;;;;;;;4.03;3.45;;;;;;;9.42;63.29;94751.25;4199576;28;20040;-64
2022/09/21 02:12:33;;;;;;;4.78;3.60;;;;;;;9.05;63.95;94748.81;4199613;28;20048;-59
2022/09/21 02:14:36;;;;;;;5.10;3.38;;;;;;;9.06;65.62;94756.50;4207563;28;20063;-59
2022/09/21 02:16:55;;;;;;;5.53;3.38;;;;;;;9.14;64.94;94758.34;4207169;28;20538;-58
2022/09/21 02:19:38;;;;;;;4.05;3.20;;;;;;;9.07;65.08;94754.69;4209027;28;20056;-57
2022/09/21 02:21:56;;;;;;;4.38;3.38;;;;;;;9.05;65.55;94751.41;4197130;28;20071;-57
2022/09/21 02:24:03;;;;;;;4.47;3.38;;;;;;;8.94;65.33;94763.72;4210920;28;20139;-58
2022/09/21 02:26:05;;;;;;;5.65;3.25;;;;;;;8.90;65.76;94764.97;4209414;28;20504;-58
2022/09/21 02:28:31;;;;;;;4.63;3.33;;;;;;;8.82;64.90;94765.72;4211064;28;20587;-58
2022/09/21 02:30:34;;;;;;;6.78;3.20;;;;;;;8.60;65.85;94764.34;4208655;28;20047;-57
2022/09/21 02:32:42;;;;;;;4.55;3.22;;;;;;;8.44;66.85;94765.94;4208564;28;20056;-58
2022/09/21 02:34:48;;;;;;;5.70;3.63;;;;;;;8.48;66.40;94775.13;4210609;28;20084;-57
2022/09/21 02:36:58;;;;;;;5.68;3.25;;;;;;;8.47;66.80;94769.06;4209780;28;20087;-58
2022/09/21 02:39:31;;;;;;;5.72;3.85;;;;;;;8.41;67.00;94759.22;4209587;28;20056;-58
2022/09/21 02:41:56;;;;;;;3.53;3.08;;;;;;;8.49;66.13;94761.91;4201587;28;20054;-57
2022/09/21 02:44:12;;;;;;;4.32;3.30;;;;;;;8.61;67.05;94768.59;4209339;28;20535;-56
2022/09/21 02:46:17;;;;;;;3.90;3.50;;;;;;;8.84;66.25;94762.97;4192053;28;20136;-57
2022/09/21 02:48:27;;;;;;;4.95;3.58;;;;;;;9.06;65.00;94769.56;4204944;28;20076;-59
2022/09/21 02:50:35;;;;;;;5.22;3.17;;;;;;;9.14;64.73;94759.19;4208103;28;20097;-55
2022/09/21 02:52:40;;;;;;;7.10;3.90;;;;;;;9.20;64.10;94765.59;4210360;28;20459;-56
2022/09/21 02:54:44;;;;;;;5.72;3.53;;;;;;;9.21;64.02;94767.28;4212918;28;20048;-56
2022/09/21 02:56:47;;;;;;;7.03;3.30;;;;;;;9.17;64.31;94761.50;4212021;28;20127;-58
2022/09/21 02:58:55;;;;;;;6.07;3.10;;;;;;;8.95;64.94;94765.38;4212180;28;20052;-56
2022/09/21 03:00:58;;;;;;;4.95;3.50;;;;;;;8.81;65.15;94760.63;4206343;28;20080;-55
2022/09/21 03:02:59;;;;;;;4.07;3.28;;;;;;;8.84;65.25;94767.34;4206648;28;20117;-58
2022/09/21 03:05:01;;;;;;;7.28;3.17;;;;;;;8.95;65.81;94764.56;4213364;28;20066;-57
2022/09/21 03:07:03;;;;;;;6.60;3.60;;;;;;;9.13;65.13;94757.53;4214115;28;20732;-57
2022/09/21 03:09:05;;;;;;;6.18;3.53;;;;;;;9.30;63.93;94768.16;4213776;28;20512;-58
2022/09/21 03:11:07;;;;;;;5.25;3.65;;;;;;;9.20;63.91;94763.00;4197211;28;20044;-59
2022/09/21 03:13:09;;;;;;;10.15;4.60;;;;;;;9.19;64.50;94767.41;4197134;28;20048;-58
2022/09/21 03:15:11;;;;;;;8.32;3.55;;;;;;;9.26;64.58;94769.44;4204667;28;20087;-60
2022/09/21 03:17:12;;;;;;;5.25;3.60;;;;;;;9.32;64.31;94764.41;4213640;28;20535;-60
2022/09/21 03:19:14;;;;;;;7.22;3.35;;;;;;;9.37;63.68;94759.56;4213184;28;20056;-57
2022/09/21 03:21:16;;;;;;;6.80;3.90;;;;;;;9.38;63.52;94758.59;4211740;28;20036;-55
2022/09/21 03:23:18;;;;;;;6.03;4.00;;;;;;;9.20;63.86;94765.59;4213166;28;20095;-57
2022/09/21 03:25:20;;;;;;;5.82;3.85;;;;;;;9.06;64.02;94769.56;4212486;28;20665;-58
2022/09/21 03:27:23;;;;;;;5.00;3.80;;;;;;;8.98;64.90;94769.47;4212906;28;20052;-57
2022/09/21 03:29:24;;;;;;;6.07;3.72;;;;;;;9.05;64.61;94775.75;4213012;28;20083;-57
2022/09/21 03:31:26;;;;;;;6.20;3.92;;;;;;;8.88;64.83;94776.53;4211204;28;20568;-58
2022/09/21 03:33:27;;;;;;;5.18;3.88;;;;;;;8.84;64.96;94768.19;4212640;28;20055;-57
2022/09/21 03:35:29;;;;;;;5.60;3.53;;;;;;;8.90;64.99;94772.00;4212109;28;20504;-57
2022/09/21 03:37:31;;;;;;;9.52;3.60;;;;;;;9.00;64.81;94770.16;4213584;28;20058;-58
2022/09/21 03:39:32;;;;;;;5.72;3.60;;;;;;;9.12;64.69;94768.97;4212532;28;20738;-58
2022/09/21 03:41:34;;;;;;;6.43;3.60;;;;;;;9.25;64.18;94773.84;4211848;28;20136;-56
2022/09/21 03:43:36;;;;;;;7.22;4.00;;;;;;;9.32;63.79;94776.69;4206427;28;20134;-58
2022/09/21 03:45:39;;;;;;;7.90;3.70;;;;;;;9.33;63.16;94775.69;4196678;28;20052;-57
2022/09/21 03:47:41;;;;;;;4.53;3.67;;;;;;;9.36;63.90;94778.03;4196947;28;20103;-57
2022/09/21 03:49:43;;;;;;;5.18;3.50;;;;;;;9.14;63.36;94784.50;4197080;28;20131;-58
2022/09/21 03:51:44;;;;;;;8.63;3.42;;;;;;;8.64;65.27;94783.13;4208609;28;20048;-58
2022/09/21 03:53:46;;;;;;;6.70;3.47;;;;;;;8.34;67.03;94778.97;4199863;28;20080;-56
2022/09/21 03:55:48;;;;;;;5.32;3.58;;;;;;;8.06;67.53;94783.31;4207723;28;20051;-56
2022/09/21 03:57:50;;;;;;;5.60;4.07;;;;;;;7.79;68.38;94793.53;4196986;28;20133;-56
2022/09/21 03:59:53;;;;;;;5.78;3.60;;;;;;;7.99;68.77;94791.72;4198440;28;20095;-55
2022/09/21 04:01:54;;;;;;;9.15;4.00;;;;;;;8.26;68.35;94781.47;4207610;28;20047;-57
2022/09/21 04:03:56;;;;;;;7.60;4.05;;;;;;;8.41;67.37;94777.50;4216582;28;20127;-57
2022/09/21 04:05:58;;;;;;;10.05;3.72;;;;;;;8.61;67.07;94773.00;4197062;28;20132;-60
2022/09/21 04:08:01;;;;;;;7.85;3.90;;;;;;;8.80;65.70;94777.28;4209387;28;20044;-60
2022/09/21 04:10:05;;;;;;;6.38;3.78;;;;;;;8.99;65.40;94779.78;4201455;28;20059;-58
2022/09/21 04:12:07;;;;;;;7.10;3.60;;;;;;;9.17;64.76;94785.03;4212744;28;20074;-59
2022/09/21 04:14:10;;;;;;;8.88;3.40;;;;;;;9.28;64.13;94775.34;4211218;28;20151;-60
2022/09/21 04:16:12;;;;;;;8.38;4.07;;;;;;;9.29;64.27;94779.56;4211018;28;20054;-60
2022/09/21 04:18:14;;;;;;;6.03;3.20;;;;;;;9.32;64.10;94781.91;4212329;28;20197;-60
2022/09/21 04:20:15;;;;;;;7.95;3.58;;;;;;;9.14;64.44;94790.56;4212268;28;20068;-59
2022/09/21 04:22:17;;;;;;;7.00;3.40;;;;;;;9.06;65.20;94782.63;4210850;28;20127;-59
2022/09/21 04:24:19;;;;;;;8.25;3.85;;;;;;;9.17;64.80;94782.41;4209980;28;20128;-58
2022/09/21 04:26:24;;;;;;;4.38;3.03;;;;;;;9.35;64.96;94779.78;4211119;28;20044;-59
2022/09/21 04:28:26;;;;;;;7.10;3.13;;;;;;;9.46;63.69;94773.53;4212096;28;20055;-57
2022/09/21 04:30:28;;;;;;;5.13;2.88;;;;;;;9.61;63.13;94777.28;4209919;28;20538;-57
2022/09/21 04:32:34;;;;;;;4.97;2.90;;;;;;;9.69;62.47;94781.72;4212104;28;20044;-57
2022/09/21 04:34:38;;;;;;;5.32;2.95;;;;;;;9.74;62.54;94782.09;4211938;28;20127;-59
2022/09/21 04:36:39;;;;;;;7.53;3.30;;;;;;;9.91;62.30;94782.22;4212216;28;20508;-59
2022/09/21 04:38:41;;;;;;;5.68;2.60;;;;;;;9.97;61.59;94785.03;4210667;28;21160;-60
2022/09/21 04:40:43;;;;;;;5.03;2.58;;;;;;;10.06;61.57;94780.69;4210269;28;20480;-58
2022/09/21 04:42:50;;;;;;;4.93;2.42;;;;;;;10.14;61.16;94778.13;4212170;28;20456;-61
2022/09/21 04:44:51;;;;;;;6.35;2.70;;;;;;;10.18;60.85;94776.84;4212268;28;20131;-59
2022/09/21 04:46:53;;;;;;;6.93;3.03;;;;;;;10.23;60.87;94779.00;4207883;28;20130;-59
2022/09/21 04:48:55;;;;;;;5.22;2.50;;;;;;;10.29;60.60;94782.78;4209356;28;20083;-64
2022/09/21 04:50:57;;;;;;;5.38;2.40;;;;;;;10.29;60.32;94778.41;4195269;28;20036;-60
2022/09/21 04:52:59;;;;;;;2.67;1.73;;;;;;;10.36;60.60;94768.94;4195760;28;20090;-59
2022/09/21 04:55:00;;;;;;;6.65;2.05;;;;;;;10.44;60.03;94779.47;4195403;28;20135;-59
2022/09/21 04:57:02;;;;;;;3.25;2.00;;;;;;;10.54;59.43;94776.75;4201709;28;20088;-61
2022/09/21 04:59:03;;;;;;;3.88;1.90;;;;;;;10.61;59.57;94782.16;4200831;28;20075;-58
2022/09/21 05:01:06;;;;;;;8.02;2.95;;;;;;;10.43;59.97;94785.69;4204443;28;20048;-60
2022/09/21 05:03:26;;;;;;;4.70;2.25;;;;;;;10.32;60.06;94785.13;4212061;28;20059;-58
2022/09/21 05:05:28;;;;;;;5.43;2.38;;;;;;;10.30;60.65;94779.22;4199460;28;20052;-60
2022/09/21 05:07:30;;;;;;;5.00;2.80;;;;;;;10.35;60.29;94787.44;4211753;28;20056;-59
2022/09/21 05:11:53;;;;;;;6.60;3.90;;;;;;;9.78;62.58;94793.88;4198954;28;20048;-61
2022/09/21 05:13:54;;;;;;;8.93;4.75;;;;;;;9.61;63.00;94794.72;4199440;28;20144;-59
2022/09/21 05:15:56;;;;;;;7.97;4.55;;;;;;;9.27;63.76;94784.97;4209486;28;20051;-61
2022/09/21 05:17:58;;;;;;;14.35;4.80;;;;;;;9.45;64.52;94792.81;4201236;28;20243;-59
2022/09/21 05:19:59;;;;;;;8.35;4.78;;;;;;;9.66;64.15;94795.13;4194882;28;20132;-60
2022/09/21 05:22:01;;;;;;;16.38;5.15;;;;;;;9.57;64.38;94796.00;4208007;28;20131;-59
2022/09/21 05:24:03;;;;;;;14.43;4.68;;;;;;;9.61;64.43;94794.72;4202609;28;20541;-58
2022/09/21 05:26:05;;;;;;;8.00;4.43;;;;;;;9.46;64.30;94796.25;4200229;28;20531;-59
2022/09/21 05:28:07;;;;;;;9.80;4.38;;;;;;;9.48;64.22;94794.28;4201906;28;20048;-59
2022/09/21 05:30:09;;;;;;;10.60;4.57;;;;;;;9.42;64.58;94793.09;4200469;28;20052;-59
2022/09/21 05:32:13;;;;;;;12.48;5.00;;;;;;;9.66;64.17;94787.28;4207792;28;20139;-58
2022/09/21 05:34:27;;;;;;;6.80;4.80;;;;;;;9.67;64.34;94795.94;4198425;28;20076;-60
2022/09/21 05:36:37;;;;;;;10.65;5.15;;;;;;;9.56;64.15;94789.97;4196793;28;20505;-58
2022/09/21 05:38:39;;;;;;;6.55;4.35;;;;;;;9.50;64.79;94794.97;4210702;28;20138;-61
2022/09/21 05:40:41;;;;;;;10.43;4.70;;;;;;;9.40;65.03;94795.06;4199635;28;20040;-57
2022/09/21 05:42:43;;;;;;;8.70;5.07;;;;;;;9.26;65.01;94799.00;4211364;28;20417;-57
2022/09/21 05:44:48;;;;;;;9.52;5.90;;;;;;;9.27;65.22;94805.88;4204845;28;20131;-59
2022/09/21 05:47:14;;;;;;;8.65;6.38;;;;;;;9.43;65.05;94799.97;4204819;28;20054;-57
2022/09/21 05:49:44;;;;;;;11.70;5.18;;;;;;;9.49;65.62;94791.53;4198269;28;20040;-58
2022/09/21 05:52:07;;;;;;;9.18;5.15;;;;;;;9.29;65.97;94793.50;4178233;28;20048;-58
2022/09/21 05:54:54;;;;;;;8.98;4.25;;;;;;;9.59;65.54;94794.91;4198083;28;20055;-59
2022/09/21 05:57:09;;;;;;;13.88;5.13;;;;;;;9.97;64.79;94790.28;4174342;28;20049;-58
2022/09/21 05:59:30;;;;;;;10.95;6.53;;;;;;;10.15;63.22;94789.41;4172398;28;20136;-58
2022/09/21 06:01:34;;;;;;;12.32;7.03;;;;;;;10.14;63.82;94793.00;4176407;28;20076;-59
2022/09/21 06:03:36;;;;;;;11.68;6.38;;;;;;;10.38;63.42;94784.50;4209000;28;20052;-60
2022/09/21 06:05:39;;;;;;;10.30;7.25;;;;;;;10.49;63.16;94788.66;4205159;28;20083;-60
2022/09/21 06:07:41;;;;;;;10.90;7.28;;;;;;;10.40;63.88;94793.03;4199589;28;20060;-59
2022/09/21 06:09:42;;;;;;;12.23;7.03;;;;;;;10.52;63.29;94797.03;4201668;28;20044;-58
2022/09/21 06:11:44;;;;;;;11.73;6.35;;;;;;;10.26;63.61;94797.03;4198696;28;20053;-61
2022/09/21 06:13:46;;;;;;;13.30;5.57;;;;;;;9.89;65.32;94797.25;4198979;28;20052;-60
2022/09/21 06:15:47;;;;;;;18.08;5.78;;;;;;;9.90;65.05;94801.53;4202825;28;20083;-58
2022/09/21 06:17:49;;;;;;;12.45;5.95;;;;;;;10.00;64.79;94800.44;4201610;28;20070;-60
2022/09/21 06:19:51;;;;;;;10.85;6.20;;;;;;;10.05;65.08;94800.00;4208065;28;20044;-61
2022/09/21 06:21:52;;;;;;;8.75;4.78;;;;;;;10.10;64.57;94799.53;4205184;28;20546;-62
2022/09/21 06:23:54;;;;;;;8.82;5.07;;;;;;;10.22;64.63;94806.16;4211183;28;20651;-58
2022/09/21 06:25:56;;;;;;;9.93;5.35;;;;;;;10.31;64.32;94805.25;4201228;28;20052;-68
2022/09/21 06:28:09;;;;;;;7.65;5.32;;;;;;;10.10;64.37;94796.91;4200125;28;20074;-65
2022/09/21 06:30:11;;;;;;;13.15;6.28;;;;;;;10.27;64.06;94803.06;4198963;28;20679;-66
2022/09/21 06:32:12;;;;;;;9.38;5.90;;;;;;;10.23;64.84;94815.63;4213428;28;20228;-67
2022/09/21 06:34:14;;;;;;;9.85;6.10;;;;;;;10.16;64.76;94810.19;4204106;28;20048;-67
2022/09/21 06:36:16;;;;;;;11.30;5.18;;;;;;;10.23;65.02;94813.84;4201688;28;20131;-67
2022/09/21 06:38:18;;;;;;;9.10;5.03;;;;;;;10.30;65.17;94821.13;4210419;28;20059;-65
2022/09/21 06:40:19;;;;;;;8.52;5.05;;;;;;;10.60;64.39;94818.03;4205332;28;20050;-67
2022/09/21 06:42:21;;;;;;;5.85;4.00;;;;;;;10.76;62.47;94819.09;4213974;28;20534;-65
2022/09/21 06:44:23;;;;;;;16.05;5.70;;;;;;;10.32;64.20;94819.16;4209754;28;20128;-66
2022/09/21 06:46:24;;;;;;;7.20;4.70;;;;;;;10.51;64.49;94818.94;4204311;28;20419;-68
2022/09/21 06:48:27;;;;;;;5.82;4.00;;;;;;;10.62;63.73;94818.66;4198551;28;20132;-68
2022/09/21 06:50:29;;;;;;;8.07;4.82;;;;;;;10.77;63.47;94820.72;4199194;28;20312;-70
2022/09/21 06:52:31;;;;;;;8.98;4.45;;;;;;;10.91;62.97;94822.75;4212042;28;20102;-66
2022/09/21 06:54:33;;;;;;;7.00;3.00;;;;;;;10.90;62.13;94828.94;4204902;28;20091;-67
2022/09/21 06:56:35;;;;;;;4.95;2.90;;;;;;;10.91;62.25;94827.16;4208782;28;20128;-64
2022/09/21 06:58:37;;;;;;;8.65;4.47;;;;;;;11.27;61.90;94830.38;4198628;28;20056;-66
2022/09/21 07:00:39;;;;;;;9.70;3.20;;;;;;;11.35;60.90;94834.84;4196038;28;20048;-67
2022/09/21 07:02:44;;;;;;;6.88;3.35;;;;;;;11.42;60.96;94833.19;4197514;28;20131;-65
2022/09/21 07:04:45;;;;;;;5.90;3.67;;;;;;;11.54;60.77;94842.41;4219519;28;20055;-67
2022/09/21 07:06:48;;;;;;;3.40;2.20;;;;;;;11.64;59.95;94837.03;4213703;28;20460;-67
2022/09/21 07:08:52;;;;;;;3.40;2.22;;;;;;;11.77;59.92;94831.31;4213654;28;20075;-66
2022/09/21 07:11:14;;;;;;;5.57;2.42;;;;;;;12.08;59.19;94831.50;4211499;28;20047;-70
2022/09/21 07:13:16;;;;;;;3.90;2.20;;;;;;;12.23;58.42;94835.09;4213137;28;20135;-68
2022/09/21 07:15:18;;;;;;;3.97;2.10;;;;;;;12.48;57.93;94828.00;4211106;28;20047;-67
2022/09/21 07:17:20;;;;;;;3.88;2.28;;;;;;;12.54;57.52;94828.31;4212734;28;20087;-66
2022/09/21 07:19:22;;;;;;;3.95;2.30;;;;;;;12.48;57.33;94835.06;4212377;28;20066;-67
2022/09/21 07:21:23;;;;;;;3.70;1.75;;;;;;;12.56;57.73;94823.72;4213772;28;20500;-70
2022/09/21 07:23:25;;;;;;;4.15;2.17;;;;;;;12.59;58.08;94834.72;4212977;28;20052;-68
2022/09/21 07:25:27;;;;;;;4.40;2.70;;;;;;;11.81;59.75;94828.19;4211510;28;20538;-68
2022/09/21 07:27:31;;;;;;;5.10;2.95;;;;;;;11.80;59.69;94831.78;4196021;28;20083;-69
2022/09/21 07:29:32;;;;;;;4.32;2.60;;;;;;;11.28;61.63;94838.09;4202857;28;20048;-66
2022/09/21 07:31:34;;;;;;;6.32;3.15;;;;;;;11.00;63.18;94866.34;4210033;28;20131;-67
2022/09/21 07:33:36;;;;;;;4.18;2.97;;;;;;;10.66;64.18;94848.81;4212521;28;20138;-67
2022/09/21 07:35:38;;;;;;;5.95;3.20;;;;;;;10.62;64.34;94847.47;4209359;28;20090;-66
2022/09/21 07:37:39;;;;;;;7.30;3.72;;;;;;;10.82;64.33;94845.47;4203625;28;20056;-65
2022/09/21 07:39:41;;;;;;;7.78;2.60;;;;;;;11.24;62.44;94844.63;4201822;28;20048;-66
2022/09/21 07:41:43;;;;;;;5.55;2.80;;;;;;;11.56;61.35;94852.75;4206995;28;20060;-68
2022/09/21 07:43:44;;;;;;;4.40;2.67;;;;;;;11.82;60.87;94842.13;4200243;28;20049;-68
2022/09/21 07:45:55;;;;;;;4.90;2.30;;;;;;;12.02;60.40;94832.16;4210337;28;20331;-67
2022/09/21 07:48:04;;;;;;;11.20;5.05;;;;;;;11.88;60.07;94838.88;4205156;28;20052;-67
2022/09/21 07:50:06;;;;;;;5.95;3.28;;;;;;;11.54;61.04;94841.59;4195559;28;20127;-66
2022/09/21 07:52:08;;;;;;;5.32;3.33;;;;;;;11.77;60.47;94841.81;4210193;28;20091;-67
2022/09/21 07:54:12;;;;;;;9.23;3.30;;;;;;;11.33;61.13;94847.28;4212291;28;20047;-66
2022/09/21 07:56:15;;;;;;;9.52;4.05;;;;;;;11.24;61.70;94841.19;4212153;28;20559;-64
2022/09/21 08:00:37;;;;;;;7.85;3.97;;;;;;;11.19;62.25;94836.44;4210420;28;20083;-72
2022/09/21 08:02:39;;;;;;;7.60;3.50;;;;;;;11.36;62.02;94831.25;4212915;28;20582;-69
2022/09/21 08:04:47;;;;;;;7.22;3.58;;;;;;;11.51;60.52;94839.28;4208850;28;20131;-67
2022/09/21 08:06:49;;;;;;;6.68;2.67;;;;;;;11.81;59.78;94827.38;4210277;28;20083;-65
2022/09/21 08:08:51;;;;;;;5.75;3.00;;;;;;;11.86;59.50;94841.63;4208310;28;20214;-67
2022/09/21 08:11:02;;;;;;;6.95;3.20;;;;;;;11.74;60.26;94827.19;4212154;28;20044;-67
2022/09/21 08:13:05;;;;;;;7.10;4.53;;;;;;;11.67;60.38;94834.88;4201066;28;20040;-66
2022/09/21 08:15:07;;;;;;;7.80;2.60;;;;;;;12.12;59.45;94827.56;4202343;28;20080;-68
2022/09/21 08:17:25;;;;;;;4.40;2.47;;;;;;;11.93;58.85;94839.22;4197008;28;20056;-66
2022/09/21 08:19:27;;;;;;;6.85;2.80;;;;;;;11.83;59.83;94844.59;4208042;28;20147;-66
2022/09/21 08:21:29;;;;;;;4.40;2.20;;;;;;;11.97;59.21;94834.47;4203684;28;20097;-66
2022/09/21 08:23:30;;;;;;;2.83;1.98;;;;;;;12.25;58.21;94824.44;4202218;28;20052;-68
2022/09/21 08:25:33;;;;;;;7.63;2.92;;;;;;;12.46;58.10;94822.09;4209549;28;20101;-67
2022/09/21 08:27:34;;;;;;;5.32;2.42;;;;;;;12.81;57.24;94822.66;4212666;28;20091;-69
2022/09/21 08:29:36;;;;;;;2.58;1.80;;;;;;;13.02;56.50;94818.63;4211948;28;20371;-69
2022/09/21 08:31:38;;;;;;;4.38;1.80;;;;;;;13.17;55.11;94816.94;4210370;28;20411;-70
2022/09/21 08:33:40;;;;;;;2.72;1.75;;;;;;;13.37;54.71;94811.25;4210424;28;20169;-66
2022/09/21 08:35:41;;;;;;;6.75;1.80;;;;;;;13.42;54.64;94820.28;4211467;28;20048;-68
2022/09/21 08:37:43;;;;;;;6.05;2.88;;;;;;;13.26;54.44;94818.50;4211655;28;20083;-66
2022/09/21 08:39:45;;;;;;;5.78;2.70;;;;;;;13.12;54.97;94814.00;4212248;28;20143;-68
2022/09/21 08:42:09;;;;;;;5.60;2.78;;;;;;;12.47;56.44;94820.28;4211751;28;20131;-68
2022/09/21 08:44:15;;;;;;;9.93;2.40;;;;;;;12.75;55.78;94819.88;4212151;28;20131;-68
2022/09/21 08:46:23;;;;;;;7.57;2.35;;;;;;;13.02;55.60;94818.63;4209448;28;20551;-68
2022/09/21 08:48:28;;;;;;;4.03;2.25;;;;;;;12.38;56.37;94810.78;4208180;28;20056;-68
2022/09/21 08:50:41;;;;;;;2.75;2.10;;;;;;;12.41;57.36;94815.69;4210121;28;20086;-66
2022/09/21 08:52:43;;;;;;;3.42;1.90;;;;;;;12.77;56.12;94805.56;4210485;28;20123;-65
2022/09/21 08:54:52;;;;;;;5.28;1.90;;;;;;;13.17;54.98;94806.41;4212020;28;20618;-67
2022/09/21 08:56:55;;;;;;;4.90;2.15;;;;;;;13.46;54.04;94807.56;4211433;28;20131;-65
2022/09/21 08:59:14;;;;;;;4.57;1.83;;;;;;;13.48;53.54;94813.50;4211806;28;20135;-66
2022/09/21 09:01:18;;;;;;;3.67;2.30;;;;;;;12.76;55.63;94801.31;4199209;28;20134;-63
2022/09/21 09:03:47;;;;;;;5.82;2.33;;;;;;;12.99;55.58;94800.56;4208800;28;20052;-69
2022/09/21 09:06:00;;;;;;;8.90;2.47;;;;;;;13.20;55.58;94798.16;4217708;28;20066;-69
2022/09/21 09:08:16;;;;;;;6.55;2.15;;;;;;;13.35;54.16;94806.16;4206207;28;20045;-69
2022/09/21 09:10:33;;;;;;;2.72;1.80;;;;;;;13.26;54.68;94794.03;4208311;28;20047;-66
2022/09/21 09:12:47;;;;;;;4.15;2.47;;;;;;;13.51;54.07;94797.38;4207831;28;20441;-68
2022/09/21 09:15:12;;;;;;;3.55;1.60;;;;;;;13.78;52.97;94790.75;4217267;28;20139;-69
2022/09/21 09:17:13;;;;;;;4.63;1.83;;;;;;;13.79;53.21;94786.28;4208014;28;20423;-68
2022/09/21 09:19:39;;;;;;;2.70;1.75;;;;;;;13.90;52.75;94791.16;4206704;28;20075;-67
2022/09/21 09:21:42;;;;;;;3.63;1.80;;;;;;;13.74;52.63;94786.81;4210466;28;20106;-69
2022/09/21 09:23:51;;;;;;;2.63;1.50;;;;;;;13.78;51.98;94777.56;4209477;28;20058;-68
2022/09/21 09:25:59;;;;;;;1.65;1.13;;;;;;;13.67;50.87;94778.81;4207910;28;20045;-69
2022/09/21 09:28:09;;;;;;;2.53;1.45;;;;;;;13.79;50.94;94773.13;4208971;28;20102;-69
2022/09/21 09:30:24;;;;;;;3.70;2.00;;;;;;;13.84;50.97;94783.97;4208604;28;20074;-65
2022/09/21 09:33:03;;;;;;;2.75;1.40;;;;;;;12.98;51.61;94789.22;4208351;28;20044;-70
2022/09/21 09:35:27;;;;;;;3.28;1.70;;;;;;;12.66;53.43;94788.34;4211466;28;20457;-65
2022/09/21 09:37:32;;;;;;;4.38;2.10;;;;;;;12.40;53.92;94779.91;4204098;28;20085;-70
2022/09/21 09:39:34;;;;;;;3.80;2.53;;;;;;;12.57;54.18;94767.53;4210484;28;20136;-68
2022/09/21 09:41:57;;;;;;;5.35;2.20;;;;;;;12.78;52.98;94766.97;4207985;28;20086;-71
2022/09/21 09:44:37;;;;;;;4.20;1.40;;;;;;;13.28;51.63;94763.94;4210022;28;20490;-70
2022/09/21 09:46:58;;;;;;;3.95;2.38;;;;;;;13.67;50.73;94760.38;4200850;28;20051;-70
2022/09/21 09:49:25;;;;;;;4.70;2.25;;;;;;;13.72;50.33;94757.22;4208078;28;20086;-70
2022/09/21 09:51:27;;;;;;;3.80;2.47;;;;;;;13.87;50.07;94758.09;4209838;28;20040;-68
2022/09/21 09:53:29;;;;;;;4.18;2.60;;;;;;;13.55;50.68;94759.19;4193031;28;20080;-67
2022/09/21 09:55:39;;;;;;;3.28;2.42;;;;;;;13.02;51.55;94761.59;4207546;28;20126;-67
2022/09/21 09:57:40;;;;;;;2.88;1.58;;;;;;;12.65;51.40;94767.53;4200344;28;20666;-67
2022/09/21 09:59:47;;;;;;;4.38;2.05;;;;;;;12.66;51.66;94761.25;4193948;28;20180;-68
2022/09/21 10:02:09;;;;;;;2.90;1.90;;;;;;;12.73;51.23;94758.78;4206503;28;20048;-65